Aqua Therapy — WDC2063 — position and weather

sailwx.info

Track history (hours):
 
Tides and Currents Weather Stations Pressure Air Temp Water Temp Dewpoint Dewpoint Depression Visibility Wind Speed Wind Dir Waves Ship Positions

Aqua Therapy

Owner: Kondrat, Michael, Portland, OR. More information available from US FCC via Universal Licensing System and Coast Guard Vessel Documentation Center.

Last reported at 2018-Apr-14 19:25 UTC. Time now 2018-Apr-27 02:14 UTC.
Position N 45°44' W 122°51'.
Warning: this ship's position is 12 days out of date.

Length 12 m.

Type: Pleasure craft. MMSI: 366987190.

Date/timePositionNaut miles runAvg speedWind from/ knotsBaromVisibWave heightAir tempDewpointWater temp
2018-Apr-14 19:25N 45°44' W 122°51'0 0.0
2018-Apr-14 18:58N 45°44' W 122°51'  
2018-Apr-08 20:54N 45°44' W 122°51'1 3.6
2018-Apr-08 20:30N 45°45' W 122°49'3 5.2
2018-Apr-08 19:53N 45°48' W 122°48'3 4.5
2018-Apr-08 19:10N 45°51' W 122°48'1 0.0
2018-Apr-07 19:46N 45°52' W 122°48'0 0.0
2018-Apr-07 19:22N 45°52' W 122°48'0 0.0
2018-Apr-07 18:58N 45°52' W 122°48'0 0.0
2018-Apr-07 18:28N 45°52' W 122°48'0 0.0
2018-Apr-07 17:58N 45°52' W 122°48'0 0.0
2018-Apr-07 17:16N 45°52' W 122°48'0 0.0
2018-Apr-07 16:58N 45°52' W 122°48'0 0.0
2018-Apr-07 16:28N 45°52' W 122°48'0 0.0
2018-Apr-07 15:58N 45°52' W 122°48'0 0.0
2018-Apr-07 05:29N 45°52' W 122°48'0 0.0
2018-Apr-07 04:59N 45°52' W 122°48'0 0.0
2018-Apr-07 04:11N 45°52' W 122°48'0 0.0
2018-Apr-07 03:59N 45°52' W 122°48'0 0.0
2018-Apr-07 03:14N 45°52' W 122°48'0 0.0
2018-Apr-07 02:20N 45°52' W 122°48'0 0.0
2018-Apr-07 01:59N 45°52' W 122°48'0 0.0
2018-Apr-07 01:29N 45°52' W 122°48'0 0.0
2018-Apr-07 00:56N 45°52' W 122°48'0 0.0
2018-Apr-07 00:20N 45°52' W 122°48'0 0.0
2018-Apr-06 23:56N 45°52' W 122°48'0 0.0
2018-Apr-06 23:29N 45°52' W 122°48'0 0.0
2018-Apr-06 22:59N 45°52' W 122°48'0 0.0
2018-Apr-06 22:29N 45°52' W 122°48'0 0.0
2018-Apr-06 21:59N 45°52' W 122°48'0 0.0
2018-Apr-06 21:29N 45°52' W 122°48'2 5.1
2018-Apr-06 21:01N 45°50' W 122°49'2 4.5
2018-Apr-06 20:29N 45°47' W 122°48'3 5.8
2018-Apr-06 20:00N 45°45' W 122°50'  
Track history (hours):
 
Tides and Currents Weather Stations Pressure Air Temp Water Temp Dewpoint Dewpoint Depression Visibility Wind Speed Wind Dir Waves Ship Positions

Aqua Therapy

Owner: Kondrat, Michael, Portland, OR. More information available from US FCC via Universal Licensing System and Coast Guard Vessel Documentation Center.

Last reported at 2018-Apr-14 19:25 UTC. Time now 2018-Apr-27 02:14 UTC.
Position N 45°44' W 122°51'.
Warning: this ship's position is 12 days out of date.

Length 12 m.

Type: Pleasure craft. MMSI: 366987190.

Date/timePositionNaut miles runAvg speedWind from/ knotsBaromVisibWave heightAir tempDewpointWater temp
2018-Apr-14 19:25N 45°44' W 122°51'0 0.0
2018-Apr-14 18:58N 45°44' W 122°51'  
2018-Apr-08 20:54N 45°44' W 122°51'1 3.6
2018-Apr-08 20:30N 45°45' W 122°49'3 5.2
2018-Apr-08 19:53N 45°48' W 122°48'3 4.5
2018-Apr-08 19:10N 45°51' W 122°48'1 0.0
2018-Apr-07 19:46N 45°52' W 122°48'0 0.0
2018-Apr-07 19:22N 45°52' W 122°48'0 0.0
2018-Apr-07 18:58N 45°52' W 122°48'0 0.0
2018-Apr-07 18:28N 45°52' W 122°48'0 0.0
2018-Apr-07 17:58N 45°52' W 122°48'0 0.0
2018-Apr-07 17:16N 45°52' W 122°48'0 0.0
2018-Apr-07 16:58N 45°52' W 122°48'0 0.0
2018-Apr-07 16:28N 45°52' W 122°48'0 0.0
2018-Apr-07 15:58N 45°52' W 122°48'0 0.0
2018-Apr-07 05:29N 45°52' W 122°48'0 0.0
2018-Apr-07 04:59N 45°52' W 122°48'0 0.0
2018-Apr-07 04:11N 45°52' W 122°48'0 0.0
2018-Apr-07 03:59N 45°52' W 122°48'0 0.0
2018-Apr-07 03:14N 45°52' W 122°48'0 0.0
2018-Apr-07 02:20N 45°52' W 122°48'0 0.0
2018-Apr-07 01:59N 45°52' W 122°48'0 0.0
2018-Apr-07 01:29N 45°52' W 122°48'0 0.0
2018-Apr-07 00:56N 45°52' W 122°48'0 0.0
2018-Apr-07 00:20N 45°52' W 122°48'0 0.0
2018-Apr-06 23:56N 45°52' W 122°48'0 0.0
2018-Apr-06 23:29N 45°52' W 122°48'0 0.0
2018-Apr-06 22:59N 45°52' W 122°48'0 0.0
2018-Apr-06 22:29N 45°52' W 122°48'0 0.0
2018-Apr-06 21:59N 45°52' W 122°48'0 0.0
2018-Apr-06 21:29N 45°52' W 122°48'2 5.1
2018-Apr-06 21:01N 45°50' W 122°49'2 4.5
2018-Apr-06 20:29N 45°47' W 122°48'3 5.8
2018-Apr-06 20:00N 45°45' W 122°50'  

Dump ship's entire track history